Whaleyville, Virginia
Current Conditions -  °F | °C
As of 1:15 PM on Tuesday 21 Oct 2014 (Local Time) from KFKN Reporting Station
Clear Clear  
Wind Chill: 73°   Ceiling: Unl
Heat Index: 73°   Visibility: 10mi
Dew Point: 50°   Wind: 5mph
Humidity: 44%   Direction: 270°W
Pressure: 29.85"   Gusts: NA
Location:  36.58°N, 76.6932°W
Report Text: KFKN 211715Z AUTO 27004KT 10SM CLR 23/10 A2985 RMK AO1
Loading
Personal Weather Stations






























Interactive Weather Map
Tropical Storm Tracking
New forecast layout! Learn more

10-Day Weather Forecast

Advertisements
Track Severe Weather on mobile